Flight Track Log - Related Links

Times and Time Zones

All times are in EDT time to prevent confusion due to time zone crossing. See the N566UA flight status page for this flight to view local times or setup timezone preferences in your user account.

Time Position Orientation Groundspeed Altitude Reporting Facility
EDT Latitude Longitude Course Direction KTS MPH feet Rate Location/Type
Wed 07:12:24 AM 29.9639 -95.3433 334° Northwest 161 185 900  Level Houston Center
Wed 07:13:24 AM 29.9978 -95.3006 48° Northeast 271 312 3,300 2,400 Climbing Houston Center
Wed 07:14:00 AM 30.1777 -95.4499 327° Northwest  Level FlightAware Approximate
Wed 07:14:09 AM 30.0511 -95.3019 359° North 251 289 5,100  Level Houston Center
Wed 07:14:25 AM 30.0722 -95.3133 335° Northwest 299 344 5,700 3,246 Climbing Houston Center
Wed 07:15:00 AM 30.2750 -95.5083 334° Northwest  Level FlightAware Approximate
Wed 07:15:10 AM 30.1239 -95.3508 328° Northwest 298 343 8,400  Level Houston Center
Wed 07:16:00 AM 30.3740 -95.5633 334° Northwest  Level FlightAware Approximate
Wed 07:16:11 AM 30.1953 -95.3997 329° Northwest 301 346 11,400  Level Houston Center
Wed 07:17:00 AM 30.4730 -95.6183 334° Northwest  Level FlightAware Approximate
Wed 07:17:11 AM 30.2783 -95.4625 327° Northwest 338 389 13,600  Level Houston Center
Wed 07:18:12 AM 30.3672 -95.5289 327° Northwest 369 425 16,500 3,000 Climbing Houston Center
Wed 07:19:13 AM 30.4558 -95.5911 329° Northwest 375 432 19,700 2,926 Climbing Houston Center
Wed 07:20:13 AM 30.5444 -95.6567 328° Northwest 376 433 22,400 2,430 Climbing Houston Center
Wed 07:21:14 AM 30.6453 -95.7108 335° Northwest 391 450 24,600 2,115 Climbing Houston Center
Wed 07:22:15 AM 30.7472 -95.7672 335° Northwest 396 456 26,700 2,016 Climbing Houston Center
Wed 07:23:16 AM 30.8536 -95.8244 335° Northwest 409 471 28,700 1,820 Climbing Houston Center
Wed 07:24:17 AM 30.9686 -95.8853 336° Northwest 440 506 30,400 1,587 Climbing Houston Center
Wed 07:25:17 AM 31.0803 -95.9464 335° Northwest 441 507 31,900 1,785 Climbing Houston Center
Wed 07:26:18 AM 31.1972 -95.9961 340° North 437 503 34,000 1,068 Climbing Houston Center
Wed 07:27:15 AM 31.3122 -96.0419 341° North 416 479 34,000  Level Fort Worth Center
Wed 07:28:15 AM 31.4256 -96.0867 341° North 416 479 34,000  Level Fort Worth Center
Wed 07:29:15 AM 31.5431 -96.1311 342° North 433 498 34,000  Level Fort Worth Center
Wed 07:30:15 AM 31.6603 -96.1758 342° North 433 498 34,000  Level Fort Worth Center
Wed 07:31:15 AM 31.7778 -96.2233 341° North 438 504 34,000  Level Fort Worth Center
Wed 07:32:15 AM 31.8867 -96.2658 342° North 430 495 34,000  Level Fort Worth Center
Wed 07:33:15 AM 32.0019 -96.3133 341° North 425 489 34,000  Level Fort Worth Center
Wed 07:34:15 AM 32.1169 -96.3561 343° North 432 497 34,000  Level Fort Worth Center
Wed 07:35:15 AM 32.2344 -96.4039 341° North 432 497 34,000  Level Fort Worth Center
Wed 07:36:15 AM 32.3517 -96.4444 344° North 427 491 34,000  Level Fort Worth Center
Wed 07:37:15 AM 32.4689 -96.4900 342° North 434 499 34,000  Level Fort Worth Center
Wed 07:38:15 AM 32.5839 -96.5356 342° North 434 499 34,000  Level Fort Worth Center
Wed 07:39:15 AM 32.6992 -96.5789 342° North 429 494 34,000  Level Fort Worth Center
Wed 07:40:15 AM 32.8142 -96.6225 342° North 429 494 34,000  Level Fort Worth Center
Wed 07:41:15 AM 32.9333 -96.6683 342° North 434 499 34,000  Level Fort Worth Center
Wed 07:42:15 AM 33.0528 -96.7119 343° North 439 505 34,000  Level Fort Worth Center
Wed 07:43:15 AM 33.1697 -96.7583 342° North 445 512 34,000  Level Fort Worth Center
Wed 07:44:15 AM 33.2869 -96.8022 343° North 445 512 34,000  Level Fort Worth Center
Wed 07:45:15 AM 33.4042 -96.8511 341° North 445 512 34,000  Level Fort Worth Center
Wed 07:46:15 AM 33.5233 -96.8978 342° North 445 512 34,000  Level Fort Worth Center
Wed 07:47:15 AM 33.6256 -96.9394 341° North 445 512 34,000  Level Fort Worth Center
Wed 07:48:15 AM 33.7447 -96.9839 343° North 445 512 34,000  Level Fort Worth Center
Wed 07:49:15 AM 33.8472 -97.0608 328° Northwest 432 497 34,000  Level Fort Worth Center
Wed 07:50:15 AM 33.9289 -97.1681 313° West 429 494 34,000  Level Fort Worth Center
Wed 07:51:15 AM 34.0106 -97.2706 314° West 429 494 34,000  Level Fort Worth Center
Wed 07:52:15 AM 34.0919 -97.3708 314° West 424 488 34,000  Level Fort Worth Center
Wed 07:53:15 AM 34.1794 -97.4839 313° West 419 482 34,000  Level Fort Worth Center
Wed 07:54:15 AM 34.2650 -97.5869 315° West 419 482 34,000  Level Fort Worth Center
Wed 07:55:15 AM 34.3483 -97.6878 315° West 425 489 34,000  Level Fort Worth Center
Wed 07:56:15 AM 34.4336 -97.7886 316° Northwest 425 489 34,000  Level Fort Worth Center
Wed 07:57:15 AM 34.5167 -97.8897 315° West 425 489 34,000  Level Fort Worth Center
Wed 07:58:15 AM 34.5894 -97.9786 315° West 420 483 34,000  Level Fort Worth Center
Wed 07:59:15 AM 34.6744 -98.0775 316° Northwest 420 483 34,000  Level Fort Worth Center
Wed 08:00:15 AM 34.7572 -98.1794 315° West 420 483 34,000  Level Fort Worth Center
Wed 08:01:15 AM 34.8400 -98.2789 315° West 415 478 34,000  Level Fort Worth Center
Wed 08:02:15 AM 34.9228 -98.3783 315° West 410 472 34,000  Level Fort Worth Center
Wed 08:03:15 AM 35.0033 -98.4756 315° West 404 465 34,000  Level Fort Worth Center
Wed 08:04:15 AM 35.0942 -98.5833 316° Northwest 410 472 34,000  Level Fort Worth Center
Wed 08:05:15 AM 35.1767 -98.6836 315° West 410 472 34,000  Level Fort Worth Center
Wed 08:06:15 AM 35.2611 -98.7864 315° West 410 472 34,000  Level Fort Worth Center
Wed 08:07:15 AM 35.3411 -98.8897 314° West 410 472 34,000  Level Fort Worth Center
Wed 08:08:15 AM 35.4253 -98.9931 315° West 410 472 34,000  Level Fort Worth Center
Wed 08:09:15 AM 35.5053 -99.0939 314° West 410 472 34,000  Level Fort Worth Center
Wed 08:10:54 AM 35.6367 -99.2564 315° West 419 482 34,000  Level Kansas City Center
Wed 08:11:56 AM 35.7197 -99.3608 314° West 420 483 34,000  Level Kansas City Center
Wed 08:12:56 AM 35.8033 -99.4647 315° West 420 483 34,000  Level Kansas City Center
Wed 08:13:59 AM 35.8858 -99.5697 314° West 421 484 34,000  Level Kansas City Center
Wed 08:15:01 AM 35.9686 -99.6739 314° West 420 483 34,000  Level Kansas City Center
Wed 08:16:01 AM 36.0500 -99.7783 314° West 418 481 34,000  Level Kansas City Center
Wed 08:17:01 AM 36.1311 -99.8819 314° West 418 481 34,000  Level Kansas City Center
Wed 08:18:03 AM 36.2122 -99.9858 314° West 417 480 34,000  Level Kansas City Center
Wed 08:19:05 AM 36.2933 -100.0878 315° West 414 476 34,000  Level Kansas City Center
Wed 08:20:06 AM 36.3725 -100.1914 314° West 412 474 34,000  Level Kansas City Center
Wed 08:21:06 AM 36.4522 -100.2942 314° West 412 474 34,000  Level Kansas City Center
Wed 08:22:06 AM 36.5411 -100.4089 314° West 413 475 34,000  Level Kansas City Center
Wed 08:23:10 AM 36.6175 -100.5081 314° West 414 476 34,000  Level Kansas City Center
Wed 08:24:11 AM 36.7069 -100.6247 314° West 415 478 34,000  Level Kansas City Center
Wed 08:25:11 AM 36.7842 -100.7269 313° West 420 483 34,000  Level Kansas City Center
Wed 08:26:13 AM 36.8611 -100.8286 313° West 421 484 34,000  Level Kansas City Center
Wed 08:27:14 AM 36.9514 -100.9469 314° West 421 484 34,000  Level Kansas City Center
Wed 08:28:15 AM 37.0283 -101.0483 314° West 419 482 34,000  Level Kansas City Center
Wed 08:29:15 AM 37.1050 -101.1519 313° West 420 483 34,000  Level Kansas City Center
Wed 08:30:18 AM 37.1958 -101.2731 313° West 425 489 34,000  Level Kansas City Center
Wed 08:31:19 AM 37.2731 -101.3764 313° West 423 487 34,000  Level Kansas City Center
Wed 08:32:20 AM 37.3511 -101.4814 313° West 425 489 34,000  Level Kansas City Center
Wed 08:33:20 AM 37.4422 -101.6039 313° West 427 491 34,000  Level Kansas City Center
Wed 08:34:22 AM 37.5203 -101.7103 313° West 429 494 34,000  Level Kansas City Center
Wed 08:35:24 AM 37.5981 -101.8161 313° West 429 494 34,000  Level Kansas City Center
Wed 08:36:13 AM 37.6769 -101.9225 313° West 432 497 34,000  Level Denver Center
Wed 08:37:14 AM 37.7544 -102.0289 313° West 430 495 34,000  Level Denver Center
Wed 08:38:15 AM 37.8467 -102.1533 313° West 433 498 34,000  Level Denver Center
Wed 08:39:15 AM 37.9256 -102.2606 313° West 436 502 34,000  Level Denver Center
Wed 08:40:16 AM 38.0050 -102.3672 313° West 436 502 34,000  Level Denver Center
Wed 08:41:17 AM 38.0967 -102.4933 313° West 436 502 34,000  Level Denver Center
Wed 08:42:18 AM 38.1761 -102.6022 313° West 438 504 34,000  Level Denver Center
Wed 08:43:19 AM 38.2561 -102.7094 314° West 435 501 34,000  Level Denver Center
Wed 08:44:19 AM 38.3467 -102.8375 312° West 435 501 34,000  Level Denver Center
Wed 08:45:20 AM 38.4253 -102.9450 313° West 434 499 34,000  Level Denver Center
Wed 08:46:21 AM 38.5022 -103.0536 312° West 430 495 34,000  Level Denver Center
Wed 08:47:22 AM 38.5828 -103.1639 313° West 427 491 34,000  Level Denver Center
Wed 08:48:23 AM 38.6625 -103.2747 313° West 421 484 34,000 -738 Level Denver Center
Wed 08:49:24 AM 38.7417 -103.3869 312° West 421 484 32,500 -2,182 Descending Denver Center
Wed 08:50:24 AM 38.8347 -103.5167 313° West 427 491 29,600 -2,430 Descending Denver Center
Wed 08:51:25 AM 38.9019 -103.6125 312° West 421 484 27,600 -2,115 Descending Denver Center
Wed 08:52:26 AM 38.9800 -103.7233 312° West 416 479 25,300 -2,262 Descending Denver Center
Wed 08:53:27 AM 39.0569 -103.8314 313° West 408 470 23,000 -2,361 Descending Denver Center
Wed 08:54:28 AM 39.1428 -103.9561 312° West 395 455 20,500 -2,262 Descending Denver Center
Wed 08:55:29 AM 39.2153 -104.0603 312° West 389 448 18,400 -1,475 Descending Denver Center
Wed 08:56:30 AM 39.2742 -104.1569 308° West 367 422 17,500 -1,180 Descending Denver Center
Wed 08:57:31 AM 39.3500 -104.2292 324° Northwest 343 395 16,000 -992 Descending Denver Center
Wed 08:58:31 AM 39.4161 -104.3025 319° Northwest 312 359 15,500 -992 Descending Denver Center
Wed 08:59:32 AM 39.4019 -104.3844 257° West 226 260 14,000 -1,525 Descending Denver Center
Wed 09:00:33 AM 39.4094 -104.4706 276° West 248 285 12,400 -1,082 Descending Denver Center
Wed 09:01:34 AM 39.4192 -104.5553 278° West 244 281 11,800 -541 Descending Denver Center
Wed 09:02:35 AM 39.4708 -104.6106 320° Northwest 248 285 11,300 -492 Descending Denver Center
Wed 09:03:36 AM 39.5297 -104.6453 336° Northwest 231 266 10,800 -492 Descending Denver Center
Wed 09:04:37 AM 39.5906 -104.6614 348° North 212 244 10,300 -738 Descending Denver Center
Wed 09:05:38 AM 39.6439 -104.6622 359° North 192 221 9,300 -1,033 Descending Denver Center
Wed 09:06:39 AM 39.6961 -104.6619 360° North 188 216 8,200 -1,091 Descending Denver Center
Wed 09:07:39 AM 39.7475 -104.6617 360° North 186 214 7,100 -992 Descending Denver Center
Wed 09:08:40 AM 39.7911 -104.6606 North 148 170 6,200 -885 Descending Denver Center

Login

Don't have an account? Register now (free) for customized features, flight alerts, and more!